Time;durP1;ratioP1;P1;durP2;ratioP2;P2;SDS_P1;SDS_P2;PMS_P1;PMS_P2;Temp;Humidity;BMP_temperature;BMP_pressure;BME280_temperature;BME280_humidity;BME280_pressure;Samples;Min_cycle;Max_cycle;Signal;HPM_P1;HPM_P2
2022/03/03 00:00:58;;;;;;;23.02;14.82;;;;;;;1.52;40.20;98175.31;12740222;23;20088;-78
2022/03/03 00:06:21;;;;;;;27.58;17.42;;;;;;;1.57;40.60;98174.50;12759282;23;20376;-78
2022/03/03 00:11:42;;;;;;;26.83;16.95;;;;;;;1.54;40.32;98170.75;12760224;23;20100;-77
2022/03/03 00:17:04;;;;;;;26.25;16.38;;;;;;;1.43;40.87;98170.94;12761595;23;20298;-77
2022/03/03 00:22:25;;;;;;;23.92;16.02;;;;;;;1.28;41.08;98163.16;12763869;23;20020;-78
2022/03/03 00:27:48;;;;;;;24.42;15.82;;;;;;;1.25;41.04;98163.44;12800423;23;20016;-78
2022/03/03 00:33:09;;;;;;;29.55;18.13;;;;;;;1.31;41.23;98169.59;12760992;23;20378;-77
2022/03/03 00:38:30;;;;;;;30.55;18.63;;;;;;;1.29;41.00;98169.41;12741124;23;20376;-77
2022/03/03 00:43:51;;;;;;;33.65;19.52;;;;;;;1.30;41.36;98155.13;12739897;23;20017;-78
2022/03/03 00:49:13;;;;;;;31.45;18.52;;;;;;;1.27;41.43;98149.94;12760419;23;20013;-77
2022/03/03 00:54:34;;;;;;;33.42;19.17;;;;;;;1.22;41.37;98151.47;12759687;23;20309;-78
2022/03/03 00:59:56;;;;;;;33.97;19.25;;;;;;;1.10;41.90;98139.91;12760493;23;20323;-78
2022/03/03 01:05:19;;;;;;;31.38;19.50;;;;;;;1.06;42.07;98128.47;12758595;23;20028;-77
2022/03/03 01:10:40;;;;;;;30.55;18.63;;;;;;;1.05;41.83;98131.72;12778044;23;20028;-78
2022/03/03 01:16:02;;;;;;;33.22;19.60;;;;;;;0.99;42.17;98131.06;12739384;23;20023;-77
2022/03/03 01:21:23;;;;;;;30.23;18.55;;;;;;;0.97;42.47;98120.59;12788244;23;20017;-77
2022/03/03 01:26:44;;;;;;;29.02;18.65;;;;;;;0.91;42.18;98119.19;12778808;23;20017;-77
2022/03/03 01:32:06;;;;;;;32.33;19.15;;;;;;;0.89;42.48;98107.97;12738179;23;20043;-78
2022/03/03 01:37:28;;;;;;;33.58;19.17;;;;;;;0.89;42.52;98119.69;12737869;23;20041;-77
2022/03/03 01:42:50;;;;;;;32.17;19.65;;;;;;;0.91;42.36;98127.41;12738220;23;20027;-77
2022/03/03 01:48:11;;;;;;;31.23;19.67;;;;;;;0.88;42.66;98133.97;12758503;23;20324;-77
2022/03/03 01:53:32;;;;;;;32.35;18.70;;;;;;;0.83;43.16;98122.50;12737726;23;20443;-78
2022/03/03 01:58:53;;;;;;;33.53;20.33;;;;;;;0.67;43.06;98119.97;12741168;23;20048;-77
2022/03/03 02:04:14;;;;;;;30.45;19.80;;;;;;;0.55;43.63;98128.34;12755632;23;20428;-77
2022/03/03 02:09:35;;;;;;;28.40;17.70;;;;;;;0.53;43.63;98110.91;12761714;23;20088;-77
2022/03/03 02:14:56;;;;;;;28.65;17.63;;;;;;;0.48;43.85;98111.69;12781682;23;20080;-78
2022/03/03 02:20:24;;;;;;;28.63;18.02;;;;;;;0.37;43.01;98101.59;12754883;23;20049;-77
2022/03/03 02:25:46;;;;;;;32.42;18.10;;;;;;;0.26;43.61;98086.00;12762732;23;20057;-77
2022/03/03 02:31:07;;;;;;;31.40;19.50;;;;;;;0.27;43.70;98095.72;12782528;23;20340;-77
2022/03/03 02:36:28;;;;;;;33.03;19.25;;;;;;;0.29;43.53;98078.75;12781262;23;20019;-77
2022/03/03 02:41:49;;;;;;;31.60;19.20;;;;;;;0.30;43.69;98077.47;12761303;23;20104;-77
2022/03/03 02:47:10;;;;;;;31.50;18.73;;;;;;;0.33;44.50;98056.47;12760936;23;20436;-77
2022/03/03 02:52:31;;;;;;;31.40;19.65;;;;;;;0.33;44.21;98059.22;12801997;23;20531;-78
2022/03/03 02:57:55;;;;;;;33.97;19.30;;;;;;;0.32;44.07;98055.72;12760375;23;20088;-77
2022/03/03 03:03:17;;;;;;;35.55;19.60;;;;;;;0.25;44.25;98042.59;12780628;23;20357;-80
2022/03/03 03:10:11;;;;;;;32.28;19.08;;;;;;;0.26;44.73;98038.56;12771600;23;20025;-80
2022/03/03 03:16:32;;;;;;;34.85;19.75;;;;;;;0.28;44.83;98036.03;12771920;23;20021;-80
2022/03/03 03:22:21;;;;;;;36.63;21.50;;;;;;;0.27;44.59;98034.56;12781521;23;20021;-78
2022/03/03 03:27:42;;;;;;;32.85;19.58;;;;;;;0.31;44.43;98040.53;12760646;23;20332;-80
2022/03/03 03:34:03;;;;;;;32.97;20.90;;;;;;;0.32;44.73;98036.50;12756715;23;20052;-79
2022/03/03 03:40:26;;;;;;;31.67;19.42;;;;;;;0.35;45.20;98029.97;12787603;23;20360;-81
2022/03/03 03:46:15;;;;;;;33.97;20.23;;;;;;;0.36;44.74;98025.97;12770835;23;20022;-77
2022/03/03 04:00:15;;;;;;;30.95;19.35;;;;;;;0.20;45.11;98016.69;12802374;23;20021;-77
2022/03/03 04:05:36;;;;;;;33.75;20.85;;;;;;;0.12;45.70;98017.78;12779718;23;20336;-78
2022/03/03 04:10:57;;;;;;;33.47;21.25;;;;;;;0.11;45.61;98005.31;12737785;23;20448;-77
2022/03/03 04:16:18;;;;;;;33.08;19.77;;;;;;;0.21;45.63;98009.94;12777536;23;20376;-77
2022/03/03 04:21:39;;;;;;;32.35;20.10;;;;;;;0.28;45.37;98006.59;12754878;23;20036;-78
2022/03/03 04:26:59;;;;;;;33.88;19.45;;;;;;;0.29;45.49;98007.34;12778441;23;20476;-78
2022/03/03 04:32:20;;;;;;;32.00;19.45;;;;;;;0.21;45.80;98003.69;12736902;23;20112;-78
2022/03/03 04:37:50;;;;;;;32.40;19.42;;;;;;;0.22;46.09;97994.94;12757240;23;20016;-80
2022/03/03 04:43:18;;;;;;;30.42;17.25;;;;;;;0.22;45.87;97986.72;12777453;23;20017;-80
2022/03/03 04:49:26;;;;;;;32.72;18.60;;;;;;;0.24;45.79;97980.69;12739197;23;20025;-80
2022/03/03 04:54:49;;;;;;;33.73;18.80;;;;;;;0.26;45.49;97986.41;12736738;23;20029;-80
2022/03/03 05:00:39;;;;;;;34.83;19.10;;;;;;;0.29;45.92;97977.16;12753507;23;20092;-80
2022/03/03 05:06:00;;;;;;;32.05;19.00;;;;;;;0.20;46.18;97970.03;12737290;23;20025;-79
2022/03/03 05:11:50;;;;;;;39.40;19.83;;;;;;;0.00;46.47;97978.75;12768765;23;20025;-80
2022/03/03 05:17:11;;;;;;;27.67;17.98;;;;;;;-0.10;46.78;97975.59;12735659;23;20017;-80
2022/03/03 05:22:33;;;;;;;32.03;18.90;;;;;;;-0.14;46.42;97977.16;12749412;23;20460;-80
2022/03/03 05:27:55;;;;;;;32.50;19.63;;;;;;;-0.13;46.71;97989.63;12757019;23;20097;-80
2022/03/03 05:41:56;;;;;;;35.78;19.80;;;;;;;-0.52;47.52;97982.56;12803324;23;20017;-79
2022/03/03 05:47:23;;;;;;;35.65;18.45;;;;;;;-0.51;47.47;97991.53;12780601;23;20526;-79
2022/03/03 06:01:24;;;;;;;38.67;21.45;;;;;;;-0.41;47.75;97982.44;12802861;23;20017;-77
2022/03/03 06:07:36;;;;;;;41.30;23.83;;;;;;;-0.24;49.03;97998.72;12739869;23;20017;-80
2022/03/03 06:21:04;;;;;;;47.57;28.60;;;;;;;6.00;44.94;97974.25;12823827;23;20017;-76
2022/03/03 06:26:25;;;;;;;44.10;27.20;;;;;;;8.44;41.96;97988.38;12802294;23;20063;-77
2022/03/03 06:31:47;;;;;;;41.50;25.98;;;;;;;10.58;39.97;97986.38;12782246;23;20376;-77
2022/03/03 06:37:08;;;;;;;37.72;24.98;;;;;;;12.38;37.46;97981.69;12762949;23;20019;-77
2022/03/03 06:42:30;;;;;;;38.60;25.33;;;;;;;13.89;35.78;97986.00;12783474;23;20436;-77
2022/03/03 06:47:53;;;;;;;35.92;22.92;;;;;;;15.10;34.14;97986.50;12763586;23;20017;-78
2022/03/03 06:53:14;;;;;;;40.67;28.45;;;;;;;13.73;34.55;97977.41;12762705;23;20036;-77
2022/03/03 06:58:36;;;;;;;33.88;24.00;;;;;;;14.43;34.01;97971.56;12763616;23;20033;-77
2022/03/03 07:03:59;;;;;;;32.25;23.10;;;;;;;17.19;31.58;97963.72;12783613;23;20068;-77
2022/03/03 07:09:49;;;;;;;33.55;23.35;;;;;;;19.51;28.57;97956.88;12774172;23;20436;-77
2022/03/03 07:15:38;;;;;;;28.48;21.75;;;;;;;21.39;25.90;97953.03;12773197;23;20024;-78
2022/03/03 07:21:05;;;;;;;29.00;21.02;;;;;;;22.59;21.96;97946.19;12780109;23;20336;-78
2022/03/03 07:26:26;;;;;;;26.50;20.17;;;;;;;23.19;19.14;97960.34;12782722;23;20372;-78
2022/03/03 07:31:53;;;;;;;31.63;22.17;;;;;;;24.33;20.58;97968.28;12781893;23;20017;-78
2022/03/03 07:37:15;;;;;;;38.83;24.58;;;;;;;25.12;16.37;97963.78;12781557;23;20024;-78
2022/03/03 07:42:36;;;;;;;33.63;24.70;;;;;;;25.45;16.05;97967.06;12781809;23;20020;-79
2022/03/03 07:47:57;;;;;;;34.30;23.10;;;;;;;26.42;16.22;97970.97;12761398;23;20021;-78
2022/03/03 07:53:19;;;;;;;29.30;22.77;;;;;;;27.27;14.41;97964.41;12800389;23;20017;-78
2022/03/03 07:58:44;;;;;;;25.65;18.77;;;;;;;28.02;13.62;97972.56;12759941;23;20025;-79
2022/03/03 08:04:05;;;;;;;;;;;;;;;28.27;11.25;97964.69;12752422;23;20017;-80
2022/03/03 08:09:26;;;;;;;20.38;16.70;;;;;;;28.32;11.57;97974.78;12798118;23;19916;-78
2022/03/03 08:14:46;;;;;;;19.27;15.07;;;;;;;27.10;11.14;97980.78;12779552;23;20028;-78
2022/03/03 08:20:10;;;;;;;21.30;17.15;;;;;;;24.55;12.25;97980.03;12737858;23;20096;-78
2022/03/03 08:25:31;;;;;;;21.48;16.48;;;;;;;22.72;13.29;97977.09;12783001;23;20068;-78
2022/03/03 08:30:59;;;;;;;20.33;15.40;;;;;;;22.08;14.20;97993.25;12738013;23;20032;-78
2022/03/03 08:36:23;;;;;;;18.05;15.27;;;;;;;21.66;14.22;97990.69;12800165;23;20063;-78
2022/03/03 08:41:45;;;;;;;16.92;14.23;;;;;;;22.72;14.65;97990.59;12778825;23;20024;-81
2022/03/03 08:47:23;;;;;;;19.73;15.05;;;;;;;23.84;14.03;97985.22;12758304;23;20021;-79
2022/03/03 08:52:47;;;;;;;20.98;15.48;;;;;;;20.70;13.82;97979.34;12757853;23;20017;-79
2022/03/03 08:58:10;;;;;;;19.02;14.68;;;;;;;17.16;15.14;97982.63;12779269;23;20400;-79
2022/03/03 09:03:31;;;;;;;23.05;14.65;;;;;;;14.82;16.01;97973.75;12758677;23;20467;-78
2022/03/03 09:08:55;;;;;;;18.98;15.02;;;;;;;13.52;17.34;97974.75;12757855;23;20017;-79
2022/03/03 09:14:16;;;;;;;22.92;16.70;;;;;;;13.19;17.83;97972.78;12778808;23;20369;-78
2022/03/03 09:19:36;;;;;;;21.73;14.93;;;;;;;12.97;19.02;97955.31;12778671;23;20013;-78
2022/03/03 09:24:57;;;;;;;17.63;14.07;;;;;;;14.14;18.16;97969.25;12763772;23;20027;-81
2022/03/03 09:30:19;;;;;;;22.85;15.05;;;;;;;15.25;17.28;97947.88;12757688;23;20032;-81
2022/03/03 09:35:40;;;;;;;18.80;14.43;;;;;;;16.43;16.97;97951.00;12778562;23;20020;-80
2022/03/03 09:41:08;;;;;;;19.02;13.88;;;;;;;19.38;16.23;97944.38;12820814;23;20017;-80
2022/03/03 09:46:29;;;;;;;16.70;13.45;;;;;;;26.77;11.23;97948.34;12799114;23;20075;-80
2022/03/03 09:51:50;;;;;;;18.08;12.63;;;;;;;32.33;9.36;97946.72;12757159;23;20017;-82
2022/03/03 09:57:11;;;;;;;16.42;13.27;;;;;;;27.83;8.20;97934.53;12777787;23;20013;-81
2022/03/03 10:02:32;;;;;;;17.90;12.80;;;;;;;22.36;10.14;97936.41;12758726;23;20096;-80
2022/03/03 10:08:04;;;;;;;18.55;13.00;;;;;;;19.78;11.96;97949.31;12757393;23;20247;-81
2022/03/03 10:13:26;;;;;;;19.17;13.90;;;;;;;21.17;12.16;97941.03;12737710;23;20444;-78
2022/03/03 10:19:04;;;;;;;16.40;13.63;;;;;;;30.09;8.30;97954.91;12780103;23;20075;-81
2022/03/03 10:24:28;;;;;;;17.85;14.23;;;;;;;34.04;7.49;97960.09;12762285;23;20096;-82
2022/03/03 10:29:50;;;;;;;14.07;10.57;;;;;;;35.17;5.65;97955.84;12801629;23;20436;-82
2022/03/03 10:35:18;;;;;;;12.57;10.15;;;;;;;36.59;5.38;97945.78;12780885;23;20036;-82
2022/03/03 10:40:39;;;;;;;11.30;9.98;;;;;;;38.66;4.37;97951.13;12739888;23;20445;-81
2022/03/03 10:46:00;;;;;;;11.40;9.80;;;;;;;37.95;3.60;97954.72;12740744;23;20507;-84
2022/03/03 10:51:25;;;;;;;12.20;9.60;;;;;;;37.95;3.68;97945.28;12762642;23;20096;-82
2022/03/03 10:56:47;;;;;;;13.52;10.02;;;;;;;37.25;3.39;97947.84;12760332;23;20043;-85
2022/03/03 11:02:08;;;;;;;11.00;9.65;;;;;;;36.32;3.31;97930.66;12781555;23;20013;-82
2022/03/03 11:07:29;;;;;;;11.80;10.50;;;;;;;30.67;4.79;97932.16;12741107;23;20067;-82
2022/03/03 11:12:50;;;;;;;;;;;;;;;26.09;7.32;97912.72;12781020;23;20017;-83
2022/03/03 11:18:11;;;;;;;13.52;10.95;;;;;;;23.47;7.66;97909.69;12779813;23;19916;-84
2022/03/03 11:23:44;;;;;;;15.00;11.75;;;;;;;21.63;9.31;97907.56;12771475;23;20032;-78
2022/03/03 11:29:11;;;;;;;15.38;12.38;;;;;;;20.56;10.22;97903.06;12760158;23;20088;-80
2022/03/03 11:34:32;;;;;;;15.05;12.40;;;;;;;20.22;10.29;97894.16;12759904;23;20083;-78
2022/03/03 11:40:00;;;;;;;13.93;11.43;;;;;;;19.29;11.41;97891.69;12823142;23;20420;-78
2022/03/03 11:45:32;;;;;;;14.50;11.55;;;;;;;18.43;11.72;97887.03;12760131;23;20023;-82
2022/03/03 11:50:53;;;;;;;14.90;10.55;;;;;;;17.23;12.88;97880.00;12739549;23;20017;-78
2022/03/03 11:56:14;;;;;;;14.30;10.70;;;;;;;16.39;13.18;97880.38;12738753;23;20024;-81
2022/03/03 12:01:52;;;;;;;13.93;11.40;;;;;;;16.21;13.35;97869.72;12780315;23;20013;-79
2022/03/03 12:07:29;;;;;;;16.52;11.98;;;;;;;15.82;14.04;97863.59;12739286;23;20021;-78
2022/03/03 12:12:49;;;;;;;20.85;13.13;;;;;;;14.98;15.22;97856.56;12718280;23;20040;-80
2022/03/03 12:18:10;;;;;;;18.80;13.73;;;;;;;14.64;15.17;97843.50;12759232;23;20013;-79
2022/03/03 12:23:42;;;;;;;17.40;12.75;;;;;;;14.41;15.32;97842.28;12775367;23;20031;-79
2022/03/03 12:29:42;;;;;;;16.13;12.35;;;;;;;14.07;16.00;97854.44;12776636;23;20012;-81
2022/03/03 12:35:29;;;;;;;17.45;12.80;;;;;;;14.32;16.06;97834.78;12778097;23;20075;-80
2022/03/03 12:40:52;;;;;;;20.95;13.88;;;;;;;14.64;16.95;97829.47;12788704;23;20467;-78
2022/03/03 12:46:18;;;;;;;18.38;12.90;;;;;;;14.50;16.23;97835.78;12781864;23;20017;-77
2022/03/03 12:51:46;;;;;;;16.40;13.23;;;;;;;14.71;16.19;97825.63;12802206;23;20352;-77
2022/03/03 12:57:39;;;;;;;21.13;13.57;;;;;;;14.27;16.36;97821.84;12781352;23;20020;-78
2022/03/03 13:03:01;;;;;;;20.05;13.70;;;;;;;14.27;16.78;97814.16;12782141;23;20091;-79
2022/03/03 13:08:26;;;;;;;16.98;13.00;;;;;;;14.06;17.09;97813.69;12763817;23;20420;-77
2022/03/03 13:14:17;;;;;;;19.90;12.98;;;;;;;13.99;17.46;97827.41;12773973;23;20025;-77
2022/03/03 13:19:48;;;;;;;17.23;12.03;;;;;;;13.85;17.55;97829.41;12760626;23;20028;-78
2022/03/03 13:25:16;;;;;;;18.02;11.65;;;;;;;13.34;17.57;97829.31;12745354;23;20083;-79
2022/03/03 13:30:48;;;;;;;13.25;10.07;;;;;;;13.00;17.27;97830.81;12741132;23;20432;-79
2022/03/03 13:36:17;;;;;;;17.10;11.52;;;;;;;12.89;17.72;97826.66;12779046;23;20043;-81
2022/03/03 13:41:38;;;;;;;17.60;12.93;;;;;;;12.60;17.87;97823.50;12798133;23;20084;-78
2022/03/03 13:47:02;;;;;;;20.25;12.45;;;;;;;12.77;18.08;97819.63;12755103;23;20025;-78
2022/03/03 13:52:31;;;;;;;17.40;12.30;;;;;;;12.75;18.58;97811.09;12754889;23;20028;-78
2022/03/03 13:57:52;;;;;;;20.73;13.60;;;;;;;12.48;18.69;97819.97;12775386;23;20020;-80
2022/03/03 14:03:15;;;;;;;18.42;13.10;;;;;;;12.06;19.13;97813.19;12784025;23;20344;-76
2022/03/03 14:08:46;;;;;;;21.83;14.27;;;;;;;11.89;19.03;97810.72;12765167;23;20017;-77
2022/03/03 14:14:07;;;;;;;21.75;14.40;;;;;;;11.51;19.59;97800.56;12767295;23;20071;-78
2022/03/03 14:19:56;;;;;;;19.05;13.68;;;;;;;11.51;19.63;97806.16;12791126;23;20021;-81
2022/03/03 14:25:18;;;;;;;20.35;14.27;;;;;;;11.54;20.37;97811.28;12763762;23;20036;-76
2022/03/03 14:30:38;;;;;;;21.10;14.88;;;;;;;11.29;19.84;97806.19;12764064;23;20444;-77
2022/03/03 14:36:28;;;;;;;19.02;12.95;;;;;;;10.95;20.08;97803.88;12763551;23;20029;-77
2022/03/03 14:42:00;;;;;;;19.23;13.63;;;;;;;10.56;20.55;97799.22;12804540;23;20372;-75
2022/03/03 14:47:23;;;;;;;21.25;13.55;;;;;;;10.50;21.06;97796.00;12762435;23;20020;-74
2022/03/03 14:53:19;;;;;;;21.75;13.90;;;;;;;10.24;21.06;97797.00;12788464;23;20095;-75
2022/03/03 14:59:15;;;;;;;20.15;13.25;;;;;;;10.11;21.63;97800.22;12742245;23;20100;-76
2022/03/03 15:05:12;;;;;;;20.00;13.27;;;;;;;9.92;21.09;97801.72;12790086;23;20033;-75
2022/03/03 15:11:04;;;;;;;17.25;12.38;;;;;;;9.99;21.22;97791.75;12775016;23;20096;-75
2022/03/03 15:16:58;;;;;;;17.00;11.82;;;;;;;9.72;21.49;97800.28;12781460;23;20013;-75
2022/03/03 15:22:49;;;;;;;21.60;13.73;;;;;;;9.40;22.17;97791.06;12786999;23;20021;-75
2022/03/03 15:28:37;;;;;;;22.52;13.35;;;;;;;9.12;22.28;97802.94;12781714;23;20432;-75
2022/03/03 15:42:00;;;;;;;23.58;14.50;;;;;;;8.87;22.86;97798.31;12803492;23;20020;-75
2022/03/03 15:55:53;;;;;;;19.58;13.27;;;;;;;8.64;23.66;97794.47;12802683;23;20440;-75
2022/03/03 16:01:43;;;;;;;19.50;12.75;;;;;;;8.56;23.55;97797.34;12774136;23;20032;-80
2022/03/03 16:07:05;;;;;;;21.48;13.38;;;;;;;8.35;23.64;97797.88;12803970;23;20033;-85
2022/03/03 16:12:25;;;;;;;17.92;12.65;;;;;;;8.21;24.08;97805.09;12786236;23;20344;-82
2022/03/03 16:17:46;;;;;;;19.38;11.57;;;;;;;8.02;24.24;97805.72;12827437;23;20028;-83
2022/03/03 16:23:08;;;;;;;21.00;12.13;;;;;;;7.77;24.70;97816.22;12790692;23;20017;-81
2022/03/03 16:28:29;;;;;;;15.90;11.25;;;;;;;7.53;24.63;97812.25;12829185;23;20048;-81
2022/03/03 16:33:57;;;;;;;16.48;11.07;;;;;;;7.36;25.02;97821.34;12766654;23;20355;-77
2022/03/03 16:39:19;;;;;;;19.15;10.40;;;;;;;7.22;25.07;97811.84;12759167;23;20087;-76
2022/03/03 16:44:41;;;;;;;16.77;10.95;;;;;;;7.08;25.21;97831.59;12758714;23;20013;-76
2022/03/03 16:50:06;;;;;;;17.92;11.20;;;;;;;6.87;25.49;97834.00;12779778;23;20435;-77
2022/03/03 16:55:28;;;;;;;16.20;10.82;;;;;;;6.78;25.98;97831.88;12779991;23;20017;-76
2022/03/03 17:00:48;;;;;;;18.77;12.32;;;;;;;6.62;25.90;97836.78;12758175;23;20021;-78
2022/03/03 17:06:10;;;;;;;18.70;12.90;;;;;;;6.59;26.66;97843.47;12761986;23;20036;-77
2022/03/03 17:11:31;;;;;;;21.02;13.27;;;;;;;6.41;26.77;97848.22;12740228;23;20025;-75
2022/03/03 17:16:55;;;;;;;22.00;12.93;;;;;;;6.28;26.42;97860.31;12779443;23;20045;-75
2022/03/03 17:22:45;;;;;;;22.30;13.90;;;;;;;6.16;27.03;97864.06;12785320;23;20025;-75
2022/03/03 17:28:07;;;;;;;21.77;13.18;;;;;;;6.08;27.40;97863.34;12775871;23;20021;-76
2022/03/03 17:33:29;;;;;;;21.58;14.55;;;;;;;5.99;27.50;97865.44;12762551;23;20336;-78
2022/03/03 17:38:50;;;;;;;22.92;14.40;;;;;;;5.93;28.33;97873.22;12723689;23;20021;-78
2022/03/03 17:44:11;;;;;;;25.00;14.63;;;;;;;5.80;27.99;97876.22;12769668;23;20080;-79
2022/03/03 17:49:35;;;;;;;23.08;15.23;;;;;;;5.73;28.62;97879.72;12789423;23;20013;-82
2022/03/03 17:54:56;;;;;;;26.95;16.33;;;;;;;5.70;28.39;97889.91;12762084;23;20433;-79
2022/03/03 18:00:17;;;;;;;23.95;16.02;;;;;;;5.62;28.69;97883.63;12793615;23;20013;-80
2022/03/03 18:05:39;;;;;;;23.60;15.25;;;;;;;5.55;29.13;97883.66;12819390;23;20060;-80
2022/03/03 18:11:01;;;;;;;29.52;16.42;;;;;;;5.45;29.38;97892.53;12750468;23;20008;-81
2022/03/03 18:16:21;;;;;;;28.98;16.27;;;;;;;5.35;30.02;97883.31;12780984;23;20021;-81
2022/03/03 18:21:46;;;;;;;24.33;15.85;;;;;;;5.40;29.46;97887.19;12756700;23;20032;-81
2022/03/03 18:27:10;;;;;;;25.52;15.68;;;;;;;5.38;29.96;97901.59;12769015;23;20100;-79
2022/03/03 18:32:33;;;;;;;25.65;16.60;;;;;;;5.34;29.93;97904.00;12771325;23;20013;-78
2022/03/03 18:38:01;;;;;;;26.33;17.50;;;;;;;5.24;30.93;97900.31;12738354;23;20023;-76
2022/03/03 18:43:24;;;;;;;23.42;15.90;;;;;;;5.10;30.94;97899.03;12782621;23;20074;-77
2022/03/03 18:48:46;;;;;;;26.05;16.33;;;;;;;4.99;30.89;97904.94;12761521;23;20067;-76
2022/03/03 18:54:07;;;;;;;23.73;16.75;;;;;;;4.92;31.21;97906.41;12782904;23;20103;-76
2022/03/03 18:59:31;;;;;;;28.60;17.70;;;;;;;4.78;32.35;97908.63;12741769;23;20021;-76
2022/03/03 19:05:21;;;;;;;28.92;17.20;;;;;;;4.71;31.99;97911.38;12772363;23;20028;-75
2022/03/03 19:11:12;;;;;;;32.63;21.30;;;;;;;4.67;32.59;97911.00;12772538;23;20025;-76
2022/03/03 19:16:33;;;;;;;32.78;21.42;;;;;;;4.64;33.17;97910.09;12781675;23;20067;-76
2022/03/03 19:21:54;;;;;;;25.25;17.90;;;;;;;4.56;32.97;97921.13;12761393;23;20024;-77
2022/03/03 19:27:15;;;;;;;28.75;17.92;;;;;;;4.50;33.02;97933.63;12759932;23;20013;-75
2022/03/03 19:38:19;;;;;;;26.50;18.40;;;;;;;4.41;33.95;97936.94;12692950;23;20052;-75
2022/03/03 19:43:40;;;;;;;25.42;16.23;;;;;;;4.37;34.11;97944.84;12680331;23;20017;-76
2022/03/03 19:49:01;;;;;;;28.58;17.73;;;;;;;4.26;34.44;97934.88;12719580;23;20072;-76
2022/03/03 19:54:24;;;;;;;30.17;18.63;;;;;;;4.24;34.42;97942.94;12694346;23;20025;-76
2022/03/03 19:59:47;;;;;;;27.95;18.63;;;;;;;4.12;34.87;97950.81;12719348;23;20056;-76
2022/03/03 20:05:09;;;;;;;28.80;18.38;;;;;;;4.00;35.67;97957.97;12698875;23;20348;-76
2022/03/03 20:11:03;;;;;;;31.58;18.65;;;;;;;3.90;36.36;97957.00;12718376;23;20040;-79
2022/03/03 20:16:56;;;;;;;29.65;18.90;;;;;;;3.82;36.22;97959.69;12711660;23;20094;-76
2022/03/03 20:22:19;;;;;;;31.10;18.48;;;;;;;3.76;36.18;97969.41;12700324;23;20014;-76
2022/03/03 20:27:40;;;;;;;29.08;19.33;;;;;;;3.71;37.25;97980.06;12715613;23;20021;-77
2022/03/03 20:33:04;;;;;;;35.38;20.60;;;;;;;3.58;37.12;97976.69;12759407;23;20017;-76
2022/03/03 20:38:25;;;;;;;30.15;20.30;;;;;;;3.55;36.93;97981.25;12761124;23;20139;-77
2022/03/03 20:44:20;;;;;;;31.75;19.98;;;;;;;3.47;38.12;97985.22;12770412;23;20025;-77
2022/03/03 20:49:41;;;;;;;35.30;22.25;;;;;;;3.38;38.07;97997.53;12738942;23;20348;-76
2022/03/03 20:55:03;;;;;;;35.53;20.92;;;;;;;3.34;38.61;97997.84;12780164;23;20017;-76
2022/03/03 21:00:53;;;;;;;35.45;21.58;;;;;;;3.33;38.07;98003.91;12755193;23;20048;-77
2022/03/03 21:06:14;;;;;;;38.10;22.58;;;;;;;3.28;38.74;98005.53;12765419;23;20021;-76
2022/03/03 21:12:11;;;;;;;35.47;22.00;;;;;;;3.17;38.52;98000.25;12769327;23;20028;-76
2022/03/03 21:17:35;;;;;;;37.95;22.40;;;;;;;3.05;39.49;98004.56;12758683;23;20044;-76
2022/03/03 21:22:58;;;;;;;40.17;23.65;;;;;;;2.98;39.82;98011.50;12778960;23;20020;-77
2022/03/03 21:28:19;;;;;;;40.17;23.20;;;;;;;2.92;40.65;98002.63;12795178;23;20031;-76
2022/03/03 21:33:40;;;;;;;44.78;25.35;;;;;;;2.87;41.07;98006.25;12758953;23;20017;-76
2022/03/03 21:39:02;;;;;;;37.53;23.75;;;;;;;2.77;40.81;98008.72;12779459;23;20075;-76
2022/03/03 21:44:23;;;;;;;40.20;24.00;;;;;;;2.73;41.17;98013.09;12779424;23;20478;-76
2022/03/03 21:49:47;;;;;;;43.22;24.85;;;;;;;2.70;41.31;98005.88;12801836;23;20089;-77
2022/03/03 21:55:11;;;;;;;45.25;25.73;;;;;;;2.62;41.49;98007.81;12758833;23;20313;-76
2022/03/03 22:00:34;;;;;;;40.92;24.35;;;;;;;2.54;42.07;98010.50;12778734;23;20024;-76
2022/03/03 22:05:56;;;;;;;45.47;25.73;;;;;;;2.46;42.54;98004.16;12746461;23;20024;-76
2022/03/03 22:11:18;;;;;;;39.72;24.55;;;;;;;2.41;42.95;98000.22;12778162;23;20079;-76
2022/03/03 22:16:40;;;;;;;43.38;24.45;;;;;;;2.36;43.17;98001.09;12763551;23;20013;-76
2022/03/03 22:22:03;;;;;;;42.05;24.55;;;;;;;2.33;43.38;97998.69;12803625;23;20024;-76
2022/03/03 22:27:24;;;;;;;41.00;24.63;;;;;;;2.32;43.12;97995.19;12781363;23;20013;-76
2022/03/03 22:32:46;;;;;;;47.05;26.20;;;;;;;2.29;43.55;97994.22;12762018;23;20021;-76
2022/03/03 22:38:07;;;;;;;43.25;24.48;;;;;;;2.20;44.58;97997.41;12802567;23;20012;-76
2022/03/03 22:43:30;;;;;;;44.13;24.52;;;;;;;2.17;44.47;98003.25;12761371;23;20025;-76
2022/03/03 22:48:53;;;;;;;41.58;24.50;;;;;;;2.10;45.17;97998.38;12781492;23;20013;-76
2022/03/03 22:54:16;;;;;;;43.60;25.48;;;;;;;2.05;45.10;97996.50;12782118;23;20013;-76
2022/03/03 22:59:37;;;;;;;47.17;25.50;;;;;;;2.04;45.53;97993.00;12783323;23;20013;-75
2022/03/03 23:05:27;;;;;;;45.15;25.20;;;;;;;1.96;46.00;97995.66;12757170;23;20029;-75
2022/03/03 23:10:48;;;;;;;43.72;24.55;;;;;;;1.89;45.80;97992.78;12782722;23;20068;-76
2022/03/03 23:16:09;;;;;;;42.80;25.27;;;;;;;1.76;46.72;98004.53;12760441;23;20020;-76
2022/03/03 23:21:30;;;;;;;38.53;22.92;;;;;;;1.70;46.71;98010.13;12761827;23;20448;-76
2022/03/03 23:26:54;;;;;;;46.67;24.27;;;;;;;1.62;47.28;98005.78;12781327;23;20084;-76
2022/03/03 23:32:15;;;;;;;44.60;23.38;;;;;;;1.63;47.74;98010.75;12762652;23;20048;-75
2022/03/03 23:37:36;;;;;;;49.85;24.67;;;;;;;1.60;48.56;98011.09;12780860;23;20020;-76
2022/03/03 23:43:25;;;;;;;41.72;22.38;;;;;;;1.61;48.11;98010.56;12773103;23;20409;-75
2022/03/03 23:48:46;;;;;;;38.45;21.17;;;;;;;1.55;49.19;98011.94;12781021;23;20041;-75
2022/03/03 23:54:06;;;;;;;43.72;22.67;;;;;;;1.59;49.08;98006.84;12739579;23;20441;-76
2022/03/03 23:59:59;;;;;;;40.33;21.77;;;;;;;1.56;49.57;97996.91;12756316;23;20021;-75
